| Date | Time | Temp. (oF) | Dew Point (oF) | Rel. Hum. (%) | Press. (in.) | Wind Dir. | Wind Speed (mph) | Hourly Rainfall (in.) |
|
|---|---|---|---|---|---|---|---|---|---|
| 1 | 07/20 | 00:00 | 80 | 74 | 83 | 29.96 | SSW | 6 | 0.00 |
| 2 | 07/19 | 23:00 | 80 | 73 | 80 | 29.95 | S | 4 | 0.00 |
| 3 | 07/19 | 22:00 | 81 | 73 | 78 | 29.95 | SSW | 2 | 0.00 |
| 4 | 07/19 | 21:00 | 83 | 72 | 71 | 29.93 | S | 3 | 0.00 |
| 5 | 07/19 | 20:00 | 87 | 71 | 61 | 29.93 | SSE | 0 | 0.00 |
| 6 | 07/19 | 19:00 | 89 | 70 | 54 | 29.92 | SSW | 0 | 0.00 |
| 7 | 07/19 | 18:00 | 90 | 69 | 52 | 29.92 | SSW | 5 | 0.00 |
| 8 | 07/19 | 17:00 | 91 | 70 | 52 | 29.93 | S | 5 | 0.00 |
| 9 | 07/19 | 16:00 | 92 | 70 | 50 | 29.94 | SW | 11 | 0.00 |
| 10 | 07/19 | 15:00 | 92 | 71 | 52 | 29.96 | SSW | 4 | 0.00 |
| 11 | 07/19 | 14:00 | 91 | 68 | 49 | 29.97 | SSW | 8 | 0.00 |
| 12 | 07/19 | 13:00 | 90 | 69 | 51 | 29.98 | SSW | 6 | 0.00 |
| 13 | 07/19 | 12:00 | 89 | 69 | 53 | 30.00 | SSW | 9 | 0.00 |
| 14 | 07/19 | 11:00 | 86 | 68 | 57 | 30.01 | SSW | 0 | 0.00 |
| 15 | 07/19 | 10:00 | 83 | 71 | 68 | 30.03 | SSW | 3 | 0.00 |
| 16 | 07/19 | 09:00 | 79 | 70 | 75 | 30.03 | WSW | 0 | 0.00 |
| 17 | 07/19 | 08:00 | 74 | 70 | 88 | 30.02 | S | 2 | 0.00 |
| 18 | 07/19 | 07:00 | 69 | 68 | 98 | 30.01 | SSW | 0 | 0.00 |
| 19 | 07/19 | 06:00 | 69 | 67 | 96 | 30.01 | SSW | 0 | 0.00 |
| 20 | 07/19 | 05:00 | 70 | 68 | 94 | 30.00 | SSW | 0 | 0.00 |
| 21 | 07/19 | 04:00 | 71 | 67 | 89 | 29.99 | WSW | 0 | 0.00 |
| 22 | 07/19 | 03:00 | 74 | 68 | 84 | 30.01 | SW | 0 | 0.00 |
| 23 | 07/19 | 02:00 | 75 | 70 | 86 | 30.01 | SSW | 2 | 0.00 |
| 24 | 07/19 | 01:00 | 76 | 70 | 82 | 30.02 | SW | 0 | 0.00 |